Main page
METAR-TAF:

METAR-TAF

Airports :

Innsbruck Airport

Innsbruck, Austria

latitude: 47-16N, longitude: 011-21E, elevation: 581 m

Current weather observation

The report was made 25 minutes ago, at 02:20 UTC
Wind 2 kt from variable directions
Temperature 17°C
Humidity 88%
Pressure 1021 hPa
Visibility 10 km or more

METAR: LOWI 090220Z AUTO VRB02KT 9999 NCD 17/15 Q1021

Time: 04:45 (02:45 UTC)

Forecast

The report was made 3 hours and 30 minutes ago, at 23:15 UTC
Forecast valid from 09 at 00 UTC to 09 at 24 UTC
Wind 3 kt from the West
Visibility 10 km or more
no clouds below 1500 m and no cumulonimbus
Becoming
from 09 at 10 UTC to 09 at 12 UTC
Wind 10 kt from the East
Visibility 10 km or more
Scattered clouds at a height of 7000 ft
Becoming
from 09 at 18 UTC to 09 at 20 UTC
Wind 2 kt from variable directions

TAF: LOWI 082315Z 0900/0924 27003KT CAVOK TX31/0914Z TN16/0904Z BECMG 0910/0912 09010KT 9999 SCT070 BECMG 0918/0920 VRB02KT

Weather observations and forecasts of more than 4000 airports (METAR and TAF reports).

The available stations are represented by yellow and red dots on the map.

Hover mouse over dot to see the name of the station.

Then click to see weather observations and forecasts.

To change the map : click on the green buttons with a black cross to zoom in, on the green button with a dash to zoom out, or on the green arrows for adjacent maps.


METAR-TAF: